Terminal Aerodrome Forecast
Issued by NWS

Home | Current Version | Previous Version | Text Only | Print | Product List | Glossary On
Versions: 1 2 3 4 5 6 7 8 9 10 11 12 13 14
000
FTAK31 PANC 271737
TAFAHO
TAF
PAHO 271737Z 2718/2818 08009KT P6SM VCSH FEW080 OVC100
      TEMPO 2720/2723 09009G19KT P6SM -RA SCT030 BKN050 OVC080
     FM272300 09008KT P6SM -RA SCT025 OVC050
     FM280600 07010KT 4SM -RA BR SCT015 OVC025
     FM281200 07010KT 4SM -RA BR OVC050 WS020/10035KT=

USA.gov is the U.S. government's official web portal to all federal, state and local government web resources and services.